Nyala, Nevada Weather observations

Data are for observation ending at time listed.
 Day   Time    Ave.   Ave.  Ave.  Vector   Max.   Stn.    Total    Solar   Ave.  
  of    of     Air    Rel.  Wind   Wind    Wind   Baro.  Precip.   Rad.    Soil  
Year   Day     Temp.  Hum.  Speed  Dir.    Gust   Pres.                    Temp. 
2016   (PST)    F      %     mph   deg.    mph     mb.     in.     W/m2     F   
------------------------------------------------------------------------------
 180   15:00   93.4    12   11.9   114     21.7    854     0.00     207    91.3
 180   16:00   94.0    12   10.8   108     18.4    854     0.00     201    91.9
 180   17:00   93.0    14    8.0   142     17.9    854     0.00     158    92.7
 180   18:00   91.4    14   11.0   112     18.3    853     0.00      70    93.2
 180   19:00   87.7    18    6.2   176     18.2    853     0.00      36    92.9
 180   20:00   83.4    22    5.4   182     13.7    854     0.00       1    92.1
 180   21:00   80.0    25    3.4   166      6.6    854     0.00       0    91.0
 180   22:00   78.1    25    2.3   116      6.4    854     0.00       0    90.0
 180   23:00   77.4    28    2.4   230      5.8    855     0.00       0    89.0
 181    0:00   77.3    29    3.1   202      8.8    855     0.00       0    88.1
 181    1:00   77.4    34    5.9    10     16.3    855     0.00       0    87.4
 181    2:00   74.1    44    5.7    24     13.7    855     0.00       0    86.7
 181    3:00   71.7    49    4.5   163      8.8    855     0.00       0    85.9
 181    4:00   68.8    54    3.6   191      6.6    855     0.00       0    85.1
 181    5:00   68.1    56    1.6   174      5.9    855     0.00       4    84.4
 181    6:00   72.8    45    1.7   126      5.9    855     0.00      53    83.6
 181    7:00   83.6    28    2.4    47      7.2    854     0.00     156    83.3
 181    8:00   80.1    40    8.3   232     16.7    855     0.00     187    83.7
 181    9:00   85.5    26    4.9   262     11.5    855     0.00     286    84.3
 181   10:00   87.5    25    2.5   229      7.7    855     0.00     204    84.9
 181   11:00   80.5    34   12.1   106     26.5    855     0.00      41    85.9
 181   12:00   75.5    44   11.7    97     24.2    854     0.00      56    85.7
 181   13:00   87.0    26    7.6   110     14.5    853     0.00     299    85.0
 181   14:00   89.5    21   11.1   113     21.0    853     0.00     222    86.1

Return to Nyala, Nevada graphs page.


Western Regional Climate Center,wrcc@dri.edu